sensor_id;sensor_type;location;lat;lon;timestamp;P1;durP1;ratioP1;P2;durP2;ratioP2
823;SDS011;373;49.342;8.146;2023-08-30T00:01:46;2.05;;;1.85;;
823;SDS011;373;49.342;8.146;2023-08-30T00:04:13;2.25;;;2.03;;
823;SDS011;373;49.342;8.146;2023-08-30T00:06:40;3.03;;;1.80;;
823;SDS011;373;49.342;8.146;2023-08-30T00:09:07;1.88;;;1.63;;
823;SDS011;373;49.342;8.146;2023-08-30T00:11:35;1.80;;;1.70;;
823;SDS011;373;49.342;8.146;2023-08-30T00:14:02;2.25;;;1.67;;
823;SDS011;373;49.342;8.146;2023-08-30T00:16:32;2.25;;;1.80;;
823;SDS011;373;49.342;8.146;2023-08-30T00:18:59;1.80;;;1.70;;
823;SDS011;373;49.342;8.146;2023-08-30T00:21:26;2.13;;;2.03;;
823;SDS011;373;49.342;8.146;2023-08-30T00:23:54;2.78;;;2.08;;
823;SDS011;373;49.342;8.146;2023-08-30T00:26:21;3.13;;;2.50;;
823;SDS011;373;49.342;8.146;2023-08-30T00:28:48;2.55;;;2.35;;
823;SDS011;373;49.342;8.146;2023-08-30T00:31:15;2.17;;;2.08;;
823;SDS011;373;49.342;8.146;2023-08-30T00:33:44;2.90;;;2.70;;
823;SDS011;373;49.342;8.146;2023-08-30T00:36:11;3.75;;;3.42;;
823;SDS011;373;49.342;8.146;2023-08-30T00:38:39;3.20;;;2.90;;
823;SDS011;373;49.342;8.146;2023-08-30T00:41:06;3.22;;;2.83;;
823;SDS011;373;49.342;8.146;2023-08-30T00:43:33;3.33;;;3.10;;
823;SDS011;373;49.342;8.146;2023-08-30T00:46:00;3.08;;;2.88;;
823;SDS011;373;49.342;8.146;2023-08-30T00:48:28;3.45;;;2.65;;
823;SDS011;373;49.342;8.146;2023-08-30T00:50:57;3.13;;;2.90;;
823;SDS011;373;49.342;8.146;2023-08-30T00:53:24;2.58;;;2.47;;
823;SDS011;373;49.342;8.146;2023-08-30T00:55:51;7.10;;;2.33;;
823;SDS011;373;49.342;8.146;2023-08-30T00:58:18;2.35;;;2.25;;
823;SDS011;373;49.342;8.146;2023-08-30T01:00:46;2.90;;;2.70;;
823;SDS011;373;49.342;8.146;2023-08-30T01:03:13;3.10;;;2.90;;
823;SDS011;373;49.342;8.146;2023-08-30T01:05:40;3.58;;;3.28;;
823;SDS011;373;49.342;8.146;2023-08-30T01:08:08;2.28;;;2.08;;
823;SDS011;373;49.342;8.146;2023-08-30T01:10:42;2.83;;;2.63;;
823;SDS011;373;49.342;8.146;2023-08-30T01:13:18;2.85;;;2.65;;
823;SDS011;373;49.342;8.146;2023-08-30T01:15:47;3.03;;;2.60;;
823;SDS011;373;49.342;8.146;2023-08-30T01:18:16;2.83;;;2.63;;
823;SDS011;373;49.342;8.146;2023-08-30T01:20:45;3.15;;;2.92;;
823;SDS011;373;49.342;8.146;2023-08-30T01:23:17;3.28;;;3.08;;
823;SDS011;373;49.342;8.146;2023-08-30T01:25:55;4.38;;;4.07;;
823;SDS011;373;49.342;8.146;2023-08-30T01:28:31;3.17;;;2.97;;
823;SDS011;373;49.342;8.146;2023-08-30T01:31:00;3.03;;;2.83;;
823;SDS011;373;49.342;8.146;2023-08-30T01:33:29;2.75;;;2.55;;
823;SDS011;373;49.342;8.146;2023-08-30T01:36:00;2.20;;;2.10;;
823;SDS011;373;49.342;8.146;2023-08-30T01:38:32;2.80;;;2.60;;
823;SDS011;373;49.342;8.146;2023-08-30T01:41:00;3.17;;;2.88;;
823;SDS011;373;49.342;8.146;2023-08-30T01:43:34;2.92;;;2.72;;
823;SDS011;373;49.342;8.146;2023-08-30T01:46:03;2.72;;;2.53;;
823;SDS011;373;49.342;8.146;2023-08-30T01:48:32;3.47;;;2.75;;
823;SDS011;373;49.342;8.146;2023-08-30T01:51:01;2.85;;;2.65;;
823;SDS011;373;49.342;8.146;2023-08-30T01:53:29;3.08;;;2.88;;
823;SDS011;373;49.342;8.146;2023-08-30T01:55:58;3.00;;;2.80;;
823;SDS011;373;49.342;8.146;2023-08-30T01:58:25;3.55;;;3.10;;
823;SDS011;373;49.342;8.146;2023-08-30T03:16:46;3.67;;;3.13;;
823;SDS011;373;49.342;8.146;2023-08-30T03:19:14;4.72;;;4.43;;
823;SDS011;373;49.342;8.146;2023-08-30T03:21:43;4.03;;;3.72;;
823;SDS011;373;49.342;8.146;2023-08-30T03:24:10;3.00;;;2.80;;
823;SDS011;373;49.342;8.146;2023-08-30T03:26:39;3.38;;;3.08;;
823;SDS011;373;49.342;8.146;2023-08-30T03:29:06;3.15;;;2.85;;
823;SDS011;373;49.342;8.146;2023-08-30T03:31:34;3.33;;;3.13;;
823;SDS011;373;49.342;8.146;2023-08-30T03:34:02;3.75;;;3.42;;
823;SDS011;373;49.342;8.146;2023-08-30T03:36:29;3.08;;;2.78;;
823;SDS011;373;49.342;8.146;2023-08-30T03:38:56;3.30;;;3.10;;
823;SDS011;373;49.342;8.146;2023-08-30T03:41:23;3.47;;;3.17;;
823;SDS011;373;49.342;8.146;2023-08-30T03:43:51;3.22;;;3.03;;
823;SDS011;373;49.342;8.146;2023-08-30T03:46:18;2.70;;;2.50;;
823;SDS011;373;49.342;8.146;2023-08-30T03:48:45;2.35;;;2.25;;
823;SDS011;373;49.342;8.146;2023-08-30T03:51:14;3.13;;;2.92;;
823;SDS011;373;49.342;8.146;2023-08-30T03:53:41;2.63;;;2.20;;
823;SDS011;373;49.342;8.146;2023-08-30T03:56:07;2.38;;;2.28;;
823;SDS011;373;49.342;8.146;2023-08-30T03:58:34;3.83;;;3.55;;
823;SDS011;373;49.342;8.146;2023-08-30T04:01:03;3.25;;;3.05;;
823;SDS011;373;49.342;8.146;2023-08-30T04:03:32;3.25;;;3.00;;
823;SDS011;373;49.342;8.146;2023-08-30T04:06:00;3.55;;;3.35;;
823;SDS011;373;49.342;8.146;2023-08-30T04:08:28;3.17;;;2.85;;
823;SDS011;373;49.342;8.146;2023-08-30T04:10:58;3.30;;;3.10;;
823;SDS011;373;49.342;8.146;2023-08-30T04:13:25;2.83;;;2.63;;
823;SDS011;373;49.342;8.146;2023-08-30T04:15:52;4.20;;;3.88;;
823;SDS011;373;49.342;8.146;2023-08-30T04:18:19;4.22;;;3.92;;
823;SDS011;373;49.342;8.146;2023-08-30T04:20:47;2.70;;;2.55;;
823;SDS011;373;49.342;8.146;2023-08-30T04:23:14;6.10;;;4.05;;
823;SDS011;373;49.342;8.146;2023-08-30T04:25:44;3.58;;;3.28;;
823;SDS011;373;49.342;8.146;2023-08-30T04:28:11;3.28;;;3.08;;
823;SDS011;373;49.342;8.146;2023-08-30T04:30:38;3.47;;;3.22;;
823;SDS011;373;49.342;8.146;2023-08-30T04:33:07;3.90;;;3.53;;
823;SDS011;373;49.342;8.146;2023-08-30T04:35:34;3.53;;;3.15;;
823;SDS011;373;49.342;8.146;2023-08-30T04:38:01;2.92;;;2.72;;
823;SDS011;373;49.342;8.146;2023-08-30T04:40:29;2.92;;;2.72;;
823;SDS011;373;49.342;8.146;2023-08-30T04:42:58;3.33;;;3.13;;
823;SDS011;373;49.342;8.146;2023-08-30T04:45:25;4.25;;;3.85;;
823;SDS011;373;49.342;8.146;2023-08-30T04:47:52;3.30;;;3.10;;
823;SDS011;373;49.342;8.146;2023-08-30T04:50:20;3.35;;;3.15;;
823;SDS011;373;49.342;8.146;2023-08-30T04:52:47;7.22;;;3.75;;
823;SDS011;373;49.342;8.146;2023-08-30T04:55:14;3.85;;;3.45;;
823;SDS011;373;49.342;8.146;2023-08-30T04:57:41;5.20;;;4.80;;
823;SDS011;373;49.342;8.146;2023-08-30T05:00:14;3.33;;;3.13;;
823;SDS011;373;49.342;8.146;2023-08-30T05:02:41;3.58;;;3.28;;
823;SDS011;373;49.342;8.146;2023-08-30T05:05:12;3.25;;;3.05;;
823;SDS011;373;49.342;8.146;2023-08-30T05:07:39;3.67;;;3.38;;
823;SDS011;373;49.342;8.146;2023-08-30T05:10:06;3.42;;;3.22;;
823;SDS011;373;49.342;8.146;2023-08-30T05:12:34;4.10;;;3.80;;
823;SDS011;373;49.342;8.146;2023-08-30T05:15:01;3.85;;;3.55;;
823;SDS011;373;49.342;8.146;2023-08-30T05:17:30;3.78;;;3.47;;
823;SDS011;373;49.342;8.146;2023-08-30T05:19:58;3.38;;;3.08;;
823;SDS011;373;49.342;8.146;2023-08-30T05:22:26;3.90;;;3.60;;
823;SDS011;373;49.342;8.146;2023-08-30T05:24:53;3.42;;;3.22;;
823;SDS011;373;49.342;8.146;2023-08-30T05:27:20;3.38;;;3.03;;
823;SDS011;373;49.342;8.146;2023-08-30T05:29:47;3.40;;;3.20;;
823;SDS011;373;49.342;8.146;2023-08-30T05:32:15;4.20;;;3.90;;
823;SDS011;373;49.342;8.146;2023-08-30T05:35:13;5.22;;;4.82;;
823;SDS011;373;49.342;8.146;2023-08-30T05:38:00;4.13;;;3.72;;
823;SDS011;373;49.342;8.146;2023-08-30T05:40:38;3.20;;;2.90;;
823;SDS011;373;49.342;8.146;2023-08-30T05:43:08;3.72;;;3.42;;
823;SDS011;373;49.342;8.146;2023-08-30T05:45:35;3.60;;;3.30;;
823;SDS011;373;49.342;8.146;2023-08-30T05:48:02;3.30;;;3.10;;
823;SDS011;373;49.342;8.146;2023-08-30T05:50:31;3.33;;;3.03;;
823;SDS011;373;49.342;8.146;2023-08-30T05:52:58;3.75;;;3.10;;
823;SDS011;373;49.342;8.146;2023-08-30T05:55:26;3.50;;;3.20;;
823;SDS011;373;49.342;8.146;2023-08-30T05:57:53;3.30;;;3.03;;
823;SDS011;373;49.342;8.146;2023-08-30T06:00:21;3.22;;;3.00;;
823;SDS011;373;49.342;8.146;2023-08-30T06:02:48;4.22;;;3.92;;
823;SDS011;373;49.342;8.146;2023-08-30T06:05:16;5.47;;;4.97;;
823;SDS011;373;49.342;8.146;2023-08-30T06:07:45;5.55;;;5.10;;
823;SDS011;373;49.342;8.146;2023-08-30T06:10:12;6.32;;;5.82;;
823;SDS011;373;49.342;8.146;2023-08-30T06:12:39;5.72;;;5.32;;
823;SDS011;373;49.342;8.146;2023-08-30T06:15:07;7.38;;;6.72;;
823;SDS011;373;49.342;8.146;2023-08-30T06:17:34;6.25;;;5.75;;
823;SDS011;373;49.342;8.146;2023-08-30T06:20:01;5.78;;;5.18;;
823;SDS011;373;49.342;8.146;2023-08-30T06:22:30;5.90;;;5.50;;
823;SDS011;373;49.342;8.146;2023-08-30T06:24:59;6.65;;;5.38;;
823;SDS011;373;49.342;8.146;2023-08-30T06:27:26;5.55;;;5.15;;
823;SDS011;373;49.342;8.146;2023-08-30T06:29:53;8.68;;;4.88;;
823;SDS011;373;49.342;8.146;2023-08-30T06:32:20;6.50;;;6.03;;
823;SDS011;373;49.342;8.146;2023-08-30T06:34:47;5.57;;;5.18;;
823;SDS011;373;49.342;8.146;2023-08-30T06:37:14;5.63;;;4.88;;
823;SDS011;373;49.342;8.146;2023-08-30T06:39:42;5.38;;;4.88;;
823;SDS011;373;49.342;8.146;2023-08-30T06:42:10;4.80;;;4.50;;
823;SDS011;373;49.342;8.146;2023-08-30T06:44:39;5.13;;;4.72;;
823;SDS011;373;49.342;8.146;2023-08-30T06:47:06;5.38;;;4.97;;
823;SDS011;373;49.342;8.146;2023-08-30T06:49:33;5.32;;;4.82;;
823;SDS011;373;49.342;8.146;2023-08-30T06:52:00;5.40;;;5.00;;
823;SDS011;373;49.342;8.146;2023-08-30T06:54:29;6.00;;;4.75;;
823;SDS011;373;49.342;8.146;2023-08-30T06:56:57;4.90;;;4.50;;
823;SDS011;373;49.342;8.146;2023-08-30T06:59:26;6.55;;;6.15;;
823;SDS011;373;49.342;8.146;2023-08-30T07:01:54;5.10;;;4.70;;
823;SDS011;373;49.342;8.146;2023-08-30T07:04:21;5.45;;;4.88;;
823;SDS011;373;49.342;8.146;2023-08-30T07:06:48;4.40;;;4.10;;
823;SDS011;373;49.342;8.146;2023-08-30T07:09:15;4.63;;;4.22;;
823;SDS011;373;49.342;8.146;2023-08-30T07:11:42;5.70;;;5.30;;
823;SDS011;373;49.342;8.146;2023-08-30T07:14:10;4.82;;;4.45;;
823;SDS011;373;49.342;8.146;2023-08-30T07:16:41;5.38;;;4.88;;
823;SDS011;373;49.342;8.146;2023-08-30T07:19:10;4.95;;;4.55;;
823;SDS011;373;49.342;8.146;2023-08-30T07:21:41;5.22;;;4.82;;
823;SDS011;373;49.342;8.146;2023-08-30T07:24:08;5.10;;;4.70;;
823;SDS011;373;49.342;8.146;2023-08-30T07:26:36;4.68;;;4.28;;
823;SDS011;373;49.342;8.146;2023-08-30T07:29:03;5.10;;;4.70;;
823;SDS011;373;49.342;8.146;2023-08-30T07:31:30;4.95;;;4.55;;
823;SDS011;373;49.342;8.146;2023-08-30T07:33:59;4.32;;;4.03;;
823;SDS011;373;49.342;8.146;2023-08-30T07:36:26;4.82;;;4.40;;
823;SDS011;373;49.342;8.146;2023-08-30T07:38:53;3.67;;;3.45;;
823;SDS011;373;49.342;8.146;2023-08-30T07:41:21;4.10;;;3.80;;
823;SDS011;373;49.342;8.146;2023-08-30T07:43:48;4.30;;;4.00;;
823;SDS011;373;49.342;8.146;2023-08-30T07:46:15;5.10;;;4.70;;
823;SDS011;373;49.342;8.146;2023-08-30T07:48:42;4.40;;;4.10;;
823;SDS011;373;49.342;8.146;2023-08-30T07:51:10;4.28;;;3.88;;
823;SDS011;373;49.342;8.146;2023-08-30T07:53:37;3.30;;;3.10;;
823;SDS011;373;49.342;8.146;2023-08-30T07:56:04;4.10;;;3.70;;
823;SDS011;373;49.342;8.146;2023-08-30T07:58:31;4.10;;;3.80;;
823;SDS011;373;49.342;8.146;2023-08-30T08:00:58;2.83;;;2.63;;
823;SDS011;373;49.342;8.146;2023-08-30T08:03:25;4.30;;;4.00;;
823;SDS011;373;49.342;8.146;2023-08-30T08:05:52;4.15;;;3.47;;
823;SDS011;373;49.342;8.146;2023-08-30T08:08:21;5.13;;;4.05;;
823;SDS011;373;49.342;8.146;2023-08-30T08:10:48;3.30;;;3.10;;
823;SDS011;373;49.342;8.146;2023-08-30T08:13:15;3.42;;;3.22;;
823;SDS011;373;49.342;8.146;2023-08-30T08:15:42;4.97;;;4.57;;
823;SDS011;373;49.342;8.146;2023-08-30T08:18:10;4.32;;;4.03;;
823;SDS011;373;49.342;8.146;2023-08-30T08:20:37;3.70;;;3.45;;
823;SDS011;373;49.342;8.146;2023-08-30T08:23:04;4.50;;;4.20;;
823;SDS011;373;49.342;8.146;2023-08-30T08:25:33;5.47;;;5.07;;
823;SDS011;373;49.342;8.146;2023-08-30T08:28:00;5.18;;;4.78;;
823;SDS011;373;49.342;8.146;2023-08-30T08:30:28;6.30;;;5.80;;
823;SDS011;373;49.342;8.146;2023-08-30T08:32:55;6.38;;;5.88;;
823;SDS011;373;49.342;8.146;2023-08-30T08:35:24;6.57;;;6.07;;
823;SDS011;373;49.342;8.146;2023-08-30T08:37:51;6.07;;;5.57;;
823;SDS011;373;49.342;8.146;2023-08-30T08:40:18;6.80;;;6.20;;
823;SDS011;373;49.342;8.146;2023-08-30T08:42:47;7.05;;;6.45;;
823;SDS011;373;49.342;8.146;2023-08-30T08:45:17;6.20;;;5.70;;
823;SDS011;373;49.342;8.146;2023-08-30T08:47:45;5.85;;;5.35;;
823;SDS011;373;49.342;8.146;2023-08-30T08:50:14;5.82;;;5.38;;
823;SDS011;373;49.342;8.146;2023-08-30T08:52:41;5.65;;;5.20;;
823;SDS011;373;49.342;8.146;2023-08-30T08:55:08;4.03;;;3.72;;
823;SDS011;373;49.342;8.146;2023-08-30T08:57:36;4.20;;;3.90;;
823;SDS011;373;49.342;8.146;2023-08-30T09:00:07;3.22;;;3.03;;
823;SDS011;373;49.342;8.146;2023-08-30T09:02:34;3.53;;;2.80;;
823;SDS011;373;49.342;8.146;2023-08-30T09:05:01;2.92;;;2.60;;
823;SDS011;373;49.342;8.146;2023-08-30T09:07:31;3.05;;;2.50;;
823;SDS011;373;49.342;8.146;2023-08-30T09:09:59;2.40;;;2.30;;
823;SDS011;373;49.342;8.146;2023-08-30T09:12:26;2.60;;;2.40;;
823;SDS011;373;49.342;8.146;2023-08-30T09:14:54;2.50;;;2.30;;
823;SDS011;373;49.342;8.146;2023-08-30T09:17:23;2.45;;;2.25;;
823;SDS011;373;49.342;8.146;2023-08-30T09:19:50;2.50;;;2.30;;
823;SDS011;373;49.342;8.146;2023-08-30T09:22:17;2.70;;;2.50;;
823;SDS011;373;49.342;8.146;2023-08-30T09:24:44;2.92;;;2.70;;
823;SDS011;373;49.342;8.146;2023-08-30T09:27:11;2.88;;;2.67;;
823;SDS011;373;49.342;8.146;2023-08-30T09:29:38;3.13;;;2.83;;
823;SDS011;373;49.342;8.146;2023-08-30T09:32:09;3.25;;;2.95;;
823;SDS011;373;49.342;8.146;2023-08-30T09:34:37;3.05;;;2.85;;
823;SDS011;373;49.342;8.146;2023-08-30T09:37:19;2.70;;;2.50;;
823;SDS011;373;49.342;8.146;2023-08-30T09:39:48;2.53;;;2.42;;
823;SDS011;373;49.342;8.146;2023-08-30T09:42:16;2.65;;;2.45;;
823;SDS011;373;49.342;8.146;2023-08-30T09:44:43;2.38;;;2.28;;
823;SDS011;373;49.342;8.146;2023-08-30T09:47:12;3.17;;;2.85;;
823;SDS011;373;49.342;8.146;2023-08-30T09:49:42;2.78;;;2.58;;
823;SDS011;373;49.342;8.146;2023-08-30T09:52:14;3.05;;;2.80;;
823;SDS011;373;49.342;8.146;2023-08-30T09:54:42;2.42;;;2.28;;
823;SDS011;373;49.342;8.146;2023-08-30T09:57:10;2.50;;;2.30;;
823;SDS011;373;49.342;8.146;2023-08-30T09:59:37;2.10;;;2.00;;
823;SDS011;373;49.342;8.146;2023-08-30T10:02:05;1.92;;;1.83;;
823;SDS011;373;49.342;8.146;2023-08-30T10:04:35;2.50;;;2.30;;
823;SDS011;373;49.342;8.146;2023-08-30T10:07:07;2.58;;;2.38;;
823;SDS011;373;49.342;8.146;2023-08-30T10:09:35;2.65;;;2.45;;
823;SDS011;373;49.342;8.146;2023-08-30T10:12:04;2.25;;;2.15;;
823;SDS011;373;49.342;8.146;2023-08-30T10:14:32;3.08;;;2.10;;
823;SDS011;373;49.342;8.146;2023-08-30T10:17:00;2.55;;;2.35;;
823;SDS011;373;49.342;8.146;2023-08-30T10:19:32;2.17;;;1.65;;
823;SDS011;373;49.342;8.146;2023-08-30T10:22:00;2.30;;;1.50;;
823;SDS011;373;49.342;8.146;2023-08-30T10:24:32;1.75;;;1.65;;
823;SDS011;373;49.342;8.146;2023-08-30T10:27:03;1.23;;;1.13;;
823;SDS011;373;49.342;8.146;2023-08-30T10:29:33;1.58;;;1.48;;
823;SDS011;373;49.342;8.146;2023-08-30T10:32:02;1.48;;;1.38;;
823;SDS011;373;49.342;8.146;2023-08-30T10:34:31;1.50;;;1.40;;
823;SDS011;373;49.342;8.146;2023-08-30T10:37:00;1.27;;;1.17;;
823;SDS011;373;49.342;8.146;2023-08-30T10:39:34;1.58;;;1.48;;
823;SDS011;373;49.342;8.146;2023-08-30T10:42:07;1.38;;;1.08;;
823;SDS011;373;49.342;8.146;2023-08-30T10:44:35;1.55;;;1.45;;
823;SDS011;373;49.342;8.146;2023-08-30T10:47:18;2.70;;;1.42;;
823;SDS011;373;49.342;8.146;2023-08-30T10:49:48;1.10;;;1.00;;
823;SDS011;373;49.342;8.146;2023-08-30T10:52:16;1.95;;;1.48;;
823;SDS011;373;49.342;8.146;2023-08-30T10:54:44;1.35;;;1.33;;
823;SDS011;373;49.342;8.146;2023-08-30T10:57:15;1.58;;;1.48;;
823;SDS011;373;49.342;8.146;2023-08-30T11:02:43;1.40;;;1.30;;
823;SDS011;373;49.342;8.146;2023-08-30T11:05:11;2.13;;;1.80;;
823;SDS011;373;49.342;8.146;2023-08-30T11:07:38;1.70;;;1.45;;
823;SDS011;373;49.342;8.146;2023-08-30T11:10:07;2.33;;;1.30;;
823;SDS011;373;49.342;8.146;2023-08-30T11:12:35;1.67;;;1.48;;
823;SDS011;373;49.342;8.146;2023-08-30T11:15:02;1.30;;;1.20;;
823;SDS011;373;49.342;8.146;2023-08-30T11:17:30;1.33;;;1.23;;
823;SDS011;373;49.342;8.146;2023-08-30T11:19:57;1.15;;;1.10;;
823;SDS011;373;49.342;8.146;2023-08-30T11:22:34;1.52;;;1.42;;
823;SDS011;373;49.342;8.146;2023-08-30T11:25:02;1.40;;;1.30;;
823;SDS011;373;49.342;8.146;2023-08-30T11:27:31;1.40;;;1.30;;
823;SDS011;373;49.342;8.146;2023-08-30T11:29:59;1.38;;;1.27;;
823;SDS011;373;49.342;8.146;2023-08-30T11:32:28;1.60;;;1.33;;
823;SDS011;373;49.342;8.146;2023-08-30T11:34:58;2.45;;;1.30;;
823;SDS011;373;49.342;8.146;2023-08-30T11:37:26;1.33;;;1.23;;
823;SDS011;373;49.342;8.146;2023-08-30T11:39:54;2.50;;;1.30;;
823;SDS011;373;49.342;8.146;2023-08-30T11:42:21;1.52;;;1.45;;
823;SDS011;373;49.342;8.146;2023-08-30T11:44:50;1.70;;;1.52;;
823;SDS011;373;49.342;8.146;2023-08-30T11:47:18;1.33;;;1.15;;
823;SDS011;373;49.342;8.146;2023-08-30T11:49:46;1.40;;;1.30;;
823;SDS011;373;49.342;8.146;2023-08-30T11:52:14;1.70;;;1.60;;
823;SDS011;373;49.342;8.146;2023-08-30T11:54:42;5.28;;;4.78;;
823;SDS011;373;49.342;8.146;2023-08-30T11:57:09;3.90;;;1.35;;
823;SDS011;373;49.342;8.146;2023-08-30T11:59:36;1.25;;;1.15;;
823;SDS011;373;49.342;8.146;2023-08-30T12:02:05;1.40;;;1.30;;
823;SDS011;373;49.342;8.146;2023-08-30T12:04:39;1.30;;;1.20;;
823;SDS011;373;49.342;8.146;2023-08-30T12:07:07;1.95;;;1.52;;
823;SDS011;373;49.342;8.146;2023-08-30T12:09:34;1.48;;;1.15;;
823;SDS011;373;49.342;8.146;2023-08-30T12:12:05;1.63;;;1.05;;
823;SDS011;373;49.342;8.146;2023-08-30T12:14:33;1.10;;;1.00;;
823;SDS011;373;49.342;8.146;2023-08-30T12:17:00;1.67;;;1.40;;
823;SDS011;373;49.342;8.146;2023-08-30T12:19:30;1.33;;;1.00;;
823;SDS011;373;49.342;8.146;2023-08-30T12:22:03;1.08;;;1.02;;
823;SDS011;373;49.342;8.146;2023-08-30T12:24:39;4.82;;;1.38;;
823;SDS011;373;49.342;8.146;2023-08-30T12:27:07;1.58;;;1.48;;
823;SDS011;373;49.342;8.146;2023-08-30T12:29:35;2.38;;;1.45;;
823;SDS011;373;49.342;8.146;2023-08-30T12:32:02;1.20;;;1.10;;
823;SDS011;373;49.342;8.146;2023-08-30T12:34:33;1.42;;;1.20;;
823;SDS011;373;49.342;8.146;2023-08-30T12:37:01;1.30;;;1.20;;
823;SDS011;373;49.342;8.146;2023-08-30T12:39:28;1.55;;;1.40;;
823;SDS011;373;49.342;8.146;2023-08-30T12:41:55;1.58;;;1.20;;
823;SDS011;373;49.342;8.146;2023-08-30T12:44:22;1.67;;;1.55;;
823;SDS011;373;49.342;8.146;2023-08-30T12:46:49;1.70;;;1.40;;
823;SDS011;373;49.342;8.146;2023-08-30T12:49:16;1.50;;;1.40;;
823;SDS011;373;49.342;8.146;2023-08-30T12:51:45;1.80;;;1.35;;
823;SDS011;373;49.342;8.146;2023-08-30T12:54:12;1.30;;;1.20;;
823;SDS011;373;49.342;8.146;2023-08-30T12:56:39;1.65;;;1.40;;
823;SDS011;373;49.342;8.146;2023-08-30T12:59:05;1.42;;;1.30;;
823;SDS011;373;49.342;8.146;2023-08-30T13:01:33;1.25;;;1.13;;
823;SDS011;373;49.342;8.146;2023-08-30T13:03:59;1.52;;;1.42;;
823;SDS011;373;49.342;8.146;2023-08-30T13:06:27;1.90;;;1.23;;
823;SDS011;373;49.342;8.146;2023-08-30T13:08:55;2.88;;;1.42;;
823;SDS011;373;49.342;8.146;2023-08-30T13:11:22;2.10;;;1.20;;
823;SDS011;373;49.342;8.146;2023-08-30T13:13:51;1.20;;;1.10;;
823;SDS011;373;49.342;8.146;2023-08-30T13:16:18;1.30;;;1.20;;
823;SDS011;373;49.342;8.146;2023-08-30T13:18:45;1.80;;;1.70;;
823;SDS011;373;49.342;8.146;2023-08-30T13:21:12;1.30;;;1.20;;
823;SDS011;373;49.342;8.146;2023-08-30T13:23:39;1.67;;;1.40;;
823;SDS011;373;49.342;8.146;2023-08-30T13:26:08;1.33;;;1.13;;
823;SDS011;373;49.342;8.146;2023-08-30T13:28:35;1.60;;;1.50;;
823;SDS011;373;49.342;8.146;2023-08-30T13:31:02;1.45;;;1.35;;
823;SDS011;373;49.342;8.146;2023-08-30T13:33:29;1.75;;;1.60;;
823;SDS011;373;49.342;8.146;2023-08-30T13:35:56;1.67;;;1.38;;
823;SDS011;373;49.342;8.146;2023-08-30T13:38:23;3.50;;;1.27;;
823;SDS011;373;49.342;8.146;2023-08-30T13:40:50;2.30;;;1.50;;
823;SDS011;373;49.342;8.146;2023-08-30T13:43:20;1.40;;;1.30;;
823;SDS011;373;49.342;8.146;2023-08-30T13:45:47;1.60;;;1.50;;
823;SDS011;373;49.342;8.146;2023-08-30T13:48:22;2.50;;;1.77;;
823;SDS011;373;49.342;8.146;2023-08-30T13:50:49;1.92;;;1.70;;
823;SDS011;373;49.342;8.146;2023-08-30T13:53:16;2.05;;;1.55;;
823;SDS011;373;49.342;8.146;2023-08-30T13:55:44;2.50;;;2.03;;
823;SDS011;373;49.342;8.146;2023-08-30T13:58:13;1.88;;;1.75;;
823;SDS011;373;49.342;8.146;2023-08-30T14:00:42;2.13;;;1.77;;
823;SDS011;373;49.342;8.146;2023-08-30T14:03:10;1.65;;;1.55;;
823;SDS011;373;49.342;8.146;2023-08-30T14:05:37;4.40;;;1.60;;
823;SDS011;373;49.342;8.146;2023-08-30T14:08:05;1.63;;;1.52;;
823;SDS011;373;49.342;8.146;2023-08-30T14:10:32;3.55;;;2.33;;
823;SDS011;373;49.342;8.146;2023-08-30T14:12:59;3.40;;;1.83;;
823;SDS011;373;49.342;8.146;2023-08-30T14:15:26;2.28;;;2.00;;
823;SDS011;373;49.342;8.146;2023-08-30T14:17:55;2.50;;;2.20;;
823;SDS011;373;49.342;8.146;2023-08-30T14:20:22;1.95;;;1.85;;
823;SDS011;373;49.342;8.146;2023-08-30T14:22:49;2.05;;;1.75;;
823;SDS011;373;49.342;8.146;2023-08-30T14:25:16;2.05;;;1.63;;
823;SDS011;373;49.342;8.146;2023-08-30T14:27:43;3.17;;;2.00;;
823;SDS011;373;49.342;8.146;2023-08-30T14:30:10;2.70;;;1.90;;
823;SDS011;373;49.342;8.146;2023-08-30T14:32:37;2.45;;;2.25;;
823;SDS011;373;49.342;8.146;2023-08-30T14:35:06;2.58;;;1.73;;
823;SDS011;373;49.342;8.146;2023-08-30T14:37:34;2.25;;;2.05;;
823;SDS011;373;49.342;8.146;2023-08-30T14:40:03;2.50;;;2.30;;
823;SDS011;373;49.342;8.146;2023-08-30T14:42:30;2.47;;;2.28;;
823;SDS011;373;49.342;8.146;2023-08-30T14:44:58;2.90;;;2.22;;
823;SDS011;373;49.342;8.146;2023-08-30T14:47:25;2.88;;;2.10;;
823;SDS011;373;49.342;8.146;2023-08-30T14:49:52;2.75;;;2.08;;
823;SDS011;373;49.342;8.146;2023-08-30T14:52:23;2.92;;;2.20;;
823;SDS011;373;49.342;8.146;2023-08-30T14:54:50;2.40;;;2.20;;
823;SDS011;373;49.342;8.146;2023-08-30T14:57:17;2.50;;;2.13;;
823;SDS011;373;49.342;8.146;2023-08-30T14:59:44;2.63;;;2.42;;
823;SDS011;373;49.342;8.146;2023-08-30T15:02:11;2.20;;;1.88;;
823;SDS011;373;49.342;8.146;2023-08-30T15:04:38;3.42;;;2.40;;
823;SDS011;373;49.342;8.146;2023-08-30T15:07:05;3.03;;;2.40;;
823;SDS011;373;49.342;8.146;2023-08-30T15:09:34;2.90;;;2.70;;
823;SDS011;373;49.342;8.146;2023-08-30T15:12:01;2.17;;;2.08;;
823;SDS011;373;49.342;8.146;2023-08-30T15:14:28;2.40;;;2.17;;
823;SDS011;373;49.342;8.146;2023-08-30T15:16:55;2.55;;;2.35;;
823;SDS011;373;49.342;8.146;2023-08-30T15:19:22;2.63;;;2.40;;
823;SDS011;373;49.342;8.146;2023-08-30T15:21:49;3.67;;;2.00;;
823;SDS011;373;49.342;8.146;2023-08-30T15:24:17;2.70;;;1.67;;
823;SDS011;373;49.342;8.146;2023-08-30T15:26:45;2.45;;;2.25;;
823;SDS011;373;49.342;8.146;2023-08-30T15:29:13;2.13;;;1.92;;
823;SDS011;373;49.342;8.146;2023-08-30T15:31:40;2.30;;;2.10;;
823;SDS011;373;49.342;8.146;2023-08-30T21:32:52;1.25;;;1.10;;
823;SDS011;373;49.342;8.146;2023-08-30T21:35:19;0.88;;;0.88;;
823;SDS011;373;49.342;8.146;2023-08-30T21:37:46;1.10;;;0.90;;
823;SDS011;373;49.342;8.146;2023-08-30T21:40:13;1.58;;;1.02;;
823;SDS011;373;49.342;8.146;2023-08-30T21:42:40;1.38;;;1.27;;
823;SDS011;373;49.342;8.146;2023-08-30T21:45:07;1.38;;;1.25;;
823;SDS011;373;49.342;8.146;2023-08-30T21:47:35;1.38;;;1.10;;
823;SDS011;373;49.342;8.146;2023-08-30T21:50:04;1.90;;;1.13;;
823;SDS011;373;49.342;8.146;2023-08-30T21:52:32;1.20;;;0.95;;
823;SDS011;373;49.342;8.146;2023-08-30T21:54:59;1.33;;;1.20;;
823;SDS011;373;49.342;8.146;2023-08-30T21:57:32;1.23;;;1.10;;
823;SDS011;373;49.342;8.146;2023-08-30T21:59:59;0.98;;;0.73;;
823;SDS011;373;49.342;8.146;2023-08-30T22:02:39;1.70;;;1.13;;
823;SDS011;373;49.342;8.146;2023-08-30T22:05:09;1.23;;;0.98;;
823;SDS011;373;49.342;8.146;2023-08-30T22:07:36;1.23;;;1.13;;
823;SDS011;373;49.342;8.146;2023-08-30T22:10:05;1.23;;;1.10;;
823;SDS011;373;49.342;8.146;2023-08-30T22:12:33;1.42;;;1.33;;
823;SDS011;373;49.342;8.146;2023-08-30T22:15:00;2.03;;;1.00;;
823;SDS011;373;49.342;8.146;2023-08-30T22:17:31;1.38;;;1.27;;
823;SDS011;373;49.342;8.146;2023-08-30T22:19:58;2.28;;;1.10;;
823;SDS011;373;49.342;8.146;2023-08-30T22:22:26;1.55;;;1.05;;
823;SDS011;373;49.342;8.146;2023-08-30T22:24:54;1.58;;;1.30;;
823;SDS011;373;49.342;8.146;2023-08-30T22:27:22;1.20;;;1.10;;
823;SDS011;373;49.342;8.146;2023-08-30T22:29:49;1.25;;;0.90;;
823;SDS011;373;49.342;8.146;2023-08-30T22:32:17;2.00;;;0.88;;
823;SDS011;373;49.342;8.146;2023-08-30T22:34:44;1.48;;;1.15;;
823;SDS011;373;49.342;8.146;2023-08-30T22:37:11;1.15;;;1.00;;
823;SDS011;373;49.342;8.146;2023-08-30T22:39:39;1.42;;;1.30;;
823;SDS011;373;49.342;8.146;2023-08-30T22:42:06;1.98;;;1.40;;
823;SDS011;373;49.342;8.146;2023-08-30T22:44:33;1.88;;;1.00;;
823;SDS011;373;49.342;8.146;2023-08-30T22:47:00;1.42;;;1.25;;
823;SDS011;373;49.342;8.146;2023-08-30T22:49:26;1.80;;;1.70;;
823;SDS011;373;49.342;8.146;2023-08-30T22:51:53;1.52;;;1.35;;
823;SDS011;373;49.342;8.146;2023-08-30T22:54:20;1.20;;;1.10;;
823;SDS011;373;49.342;8.146;2023-08-30T22:56:50;1.10;;;1.00;;
823;SDS011;373;49.342;8.146;2023-08-30T22:59:17;2.30;;;1.20;;
823;SDS011;373;49.342;8.146;2023-08-30T23:01:44;2.05;;;1.35;;
823;SDS011;373;49.342;8.146;2023-08-30T23:04:12;1.60;;;1.50;;
823;SDS011;373;49.342;8.146;2023-08-30T23:06:39;2.42;;;1.40;;
823;SDS011;373;49.342;8.146;2023-08-30T23:09:08;1.23;;;1.13;;